createdAt,value
2024-02-13T00:00:23.067Z,1008.71
2024-02-13T00:01:23.091Z,1008.64
2024-02-13T00:02:23.056Z,1008.62
2024-02-13T00:03:23.287Z,1008.61
2024-02-13T00:04:23.029Z,1008.66
2024-02-13T00:05:23.055Z,1008.64
2024-02-13T00:06:22.994Z,1008.65
2024-02-13T00:07:23.273Z,1008.68
2024-02-13T00:08:30.331Z,1008.69
2024-02-13T00:09:23.998Z,1008.69
2024-02-13T00:10:22.955Z,1008.70
2024-02-13T00:11:26.724Z,1008.71
2024-02-13T00:12:24.136Z,1008.71
2024-02-13T00:13:22.862Z,1008.78
2024-02-13T00:14:22.906Z,1008.77
2024-02-13T00:15:22.901Z,1008.76
2024-02-13T00:16:22.834Z,1008.77
2024-02-13T00:17:22.822Z,1008.80
2024-02-13T00:18:22.846Z,1008.73
2024-02-13T00:19:22.834Z,1008.72
2024-02-13T00:20:22.848Z,1008.80
2024-02-13T00:21:22.780Z,1008.75
2024-02-13T00:22:22.784Z,1008.76
2024-02-13T00:23:22.865Z,1008.76
2024-02-13T00:24:22.728Z,1008.73
2024-02-13T00:25:22.735Z,1008.78
2024-02-13T00:26:22.716Z,1008.77
2024-02-13T00:27:22.702Z,1008.79
2024-02-13T00:28:22.657Z,1008.80
2024-02-13T00:29:22.673Z,1008.79
2024-02-13T00:30:22.648Z,1008.78
2024-02-13T00:31:22.617Z,1008.79
2024-02-13T00:32:22.708Z,1008.84
2024-02-13T00:33:22.681Z,1008.86
2024-02-13T00:34:22.641Z,1008.82
2024-02-13T00:35:22.594Z,1008.83
2024-02-13T00:36:22.564Z,1008.81
2024-02-13T00:37:22.542Z,1008.84
2024-02-13T00:38:22.566Z,1008.82
2024-02-13T00:39:22.855Z,1008.84
2024-02-13T00:40:22.531Z,1008.88
2024-02-13T00:41:22.516Z,1008.86
2024-02-13T00:42:22.670Z,1008.92
2024-02-13T00:43:22.919Z,1008.89
2024-02-13T00:44:22.493Z,1008.88
2024-02-13T00:45:22.512Z,1008.89
2024-02-13T00:46:22.415Z,1008.86
2024-02-13T00:47:22.442Z,1008.94
2024-02-13T00:48:22.593Z,1008.92
2024-02-13T00:49:22.375Z,1008.90
2024-02-13T00:50:22.400Z,1008.96
2024-02-13T00:51:22.383Z,1008.93
2024-02-13T00:52:22.563Z,1008.93
2024-02-13T00:53:22.520Z,1008.96
2024-02-13T00:54:22.420Z,1008.89
2024-02-13T00:55:22.292Z,1008.94
2024-02-13T00:56:22.392Z,1008.96
2024-02-13T00:57:22.399Z,1008.93
2024-02-13T00:58:22.240Z,1008.96
2024-02-13T00:59:22.322Z,1008.95
2024-02-13T01:00:22.232Z,1008.97
2024-02-13T01:01:22.199Z,1009.00
2024-02-13T01:02:22.260Z,1008.96
2024-02-13T01:03:22.501Z,1009.04
2024-02-13T01:04:22.371Z,1009.05
2024-02-13T01:05:22.210Z,1009.05
2024-02-13T01:06:22.159Z,1009.07
2024-02-13T01:07:22.108Z,1009.07
2024-02-13T01:08:22.550Z,1009.13
2024-02-13T01:09:23.198Z,1009.11
2024-02-13T01:10:22.117Z,1009.12
2024-02-13T01:11:22.093Z,1009.14
2024-02-13T01:12:22.299Z,1009.16
2024-02-13T01:13:22.065Z,1009.16
2024-02-13T01:14:22.088Z,1009.19
2024-02-13T01:15:23.042Z,1009.24
2024-02-13T01:16:22.041Z,1009.19
2024-02-13T01:17:22.017Z,1009.20
2024-02-13T01:18:22.292Z,1009.18
2024-02-13T01:19:22.241Z,1009.18
2024-02-13T01:20:21.972Z,1009.20
2024-02-13T01:21:21.911Z,1009.17
2024-02-13T01:22:21.930Z,1009.18
2024-02-13T01:23:21.931Z,1009.19
2024-02-13T01:24:22.248Z,1009.19
2024-02-13T01:25:21.880Z,1009.22
2024-02-13T01:26:22.110Z,1009.23
2024-02-13T01:27:21.836Z,1009.23
2024-02-13T01:28:21.838Z,1009.24
2024-02-13T01:29:22.166Z,1009.27
2024-02-13T01:30:21.817Z,1009.23
2024-02-13T01:31:21.773Z,1009.23
2024-02-13T01:32:21.838Z,1009.24
2024-02-13T01:33:21.986Z,1009.20
2024-02-13T01:34:21.861Z,1009.21
2024-02-13T01:35:21.755Z,1009.25
2024-02-13T01:36:21.755Z,1009.28
2024-02-13T01:37:21.997Z,1009.31
2024-02-13T01:38:21.780Z,1009.40
2024-02-13T01:39:21.650Z,1009.41
2024-02-13T01:40:21.685Z,1009.46
2024-02-13T01:41:21.806Z,1009.44
2024-02-13T01:42:26.705Z,1009.43
2024-02-13T01:43:21.599Z,1009.43
2024-02-13T01:44:21.764Z,1009.44
2024-02-13T01:45:21.574Z,1009.42
2024-02-13T01:46:21.578Z,1009.39
2024-02-13T01:47:21.932Z,1009.41
2024-02-13T01:48:21.996Z,1009.37
2024-02-13T01:49:21.760Z,1009.40
2024-02-13T01:50:21.810Z,1009.39
2024-02-13T01:51:21.522Z,1009.41
2024-02-13T01:52:21.776Z,1009.40
2024-02-13T01:53:21.482Z,1009.43
2024-02-13T01:54:21.454Z,1009.44
2024-02-13T01:55:21.433Z,1009.42
2024-02-13T01:56:21.484Z,1009.53
2024-02-13T01:57:21.881Z,1009.50
2024-02-13T01:58:21.419Z,1009.56
2024-02-13T01:59:21.915Z,1009.51
2024-02-13T02:00:21.371Z,1009.54
2024-02-13T02:01:22.247Z,1009.55
2024-02-13T02:02:21.336Z,1009.55
2024-02-13T02:03:21.585Z,1009.60
2024-02-13T02:04:21.349Z,1009.56
2024-02-13T02:05:21.378Z,1009.64
2024-02-13T02:06:21.461Z,1009.63
2024-02-13T02:07:21.543Z,1009.65
2024-02-13T02:08:21.340Z,1009.67
2024-02-13T02:09:21.242Z,1009.68
2024-02-13T02:10:21.267Z,1009.71
2024-02-13T02:11:21.529Z,1009.68
2024-02-13T02:12:21.188Z,1009.71
2024-02-13T02:13:21.206Z,1009.70
2024-02-13T02:14:21.547Z,1009.69
2024-02-13T02:15:21.470Z,1009.75
2024-02-13T02:16:21.256Z,1009.71
2024-02-13T02:17:21.387Z,1009.74
2024-02-13T02:18:21.284Z,1009.75
2024-02-13T02:19:21.191Z,1009.79
2024-02-13T02:20:21.908Z,1009.77
2024-02-13T02:21:21.101Z,1009.78
2024-02-13T02:22:21.060Z,1009.83
2024-02-13T02:23:21.167Z,1009.84
2024-02-13T02:24:21.026Z,1009.87
2024-02-13T02:25:21.031Z,1009.94
2024-02-13T02:26:21.056Z,1009.98
2024-02-13T02:27:21.274Z,1009.97
2024-02-13T02:28:21.233Z,1010.00
2024-02-13T02:29:21.020Z,1010.07
2024-02-13T02:30:21.031Z,1010.05
2024-02-13T02:31:20.970Z,1010.04
2024-02-13T02:32:20.996Z,1010.09
2024-02-13T02:33:20.945Z,1010.08
2024-02-13T02:34:20.939Z,1010.03
2024-02-13T02:35:20.920Z,1010.03
2024-02-13T02:36:20.914Z,1010.04
2024-02-13T02:37:20.857Z,1010.12
2024-02-13T02:38:20.856Z,1010.19
2024-02-13T02:39:20.925Z,1010.30
2024-02-13T02:40:21.030Z,1010.30
2024-02-13T02:41:21.229Z,1010.34
2024-02-13T02:42:20.996Z,1010.37
2024-02-13T02:43:20.948Z,1010.40
2024-02-13T02:44:20.804Z,1010.45
2024-02-13T02:45:20.767Z,1010.43
2024-02-13T02:46:20.737Z,1010.44
2024-02-13T02:47:20.738Z,1010.47
2024-02-13T02:48:20.979Z,1010.46
2024-02-13T02:49:20.756Z,1010.48
2024-02-13T02:50:20.669Z,1010.53
2024-02-13T02:51:20.682Z,1010.52
2024-02-13T02:52:20.617Z,1010.52
2024-02-13T02:53:20.814Z,1010.51
2024-02-13T02:54:20.646Z,1010.54
2024-02-13T02:55:20.582Z,1010.51
2024-02-13T02:56:20.608Z,1010.49
2024-02-13T02:57:20.591Z,1010.44
2024-02-13T02:58:20.552Z,1010.43
2024-02-13T02:59:20.558Z,1010.49
2024-02-13T03:00:20.506Z,1010.49
2024-02-13T03:01:20.554Z,1010.39
2024-02-13T03:02:20.500Z,1010.43
2024-02-13T03:03:21.001Z,1010.43
2024-02-13T03:04:20.466Z,1010.40
2024-02-13T03:05:20.512Z,1010.48
2024-02-13T03:06:20.474Z,1010.45
2024-02-13T03:07:20.429Z,1010.42
2024-02-13T03:08:20.513Z,1010.42
2024-02-13T03:09:20.464Z,1010.45
2024-02-13T03:10:20.368Z,1010.42
2024-02-13T03:11:20.438Z,1010.44
2024-02-13T03:12:20.351Z,1010.40
2024-02-13T03:13:20.397Z,1010.44
2024-02-13T03:14:20.347Z,1010.44
2024-02-13T03:15:20.346Z,1010.43
2024-02-13T03:16:20.516Z,1010.47
2024-02-13T03:17:20.350Z,1010.45
2024-02-13T03:18:20.422Z,1010.52
2024-02-13T03:19:20.343Z,1010.48
2024-02-13T03:20:20.303Z,1010.48
2024-02-13T03:21:20.510Z,1010.47
2024-02-13T03:22:20.240Z,1010.48
2024-02-13T03:23:20.207Z,1010.44
2024-02-13T03:24:20.184Z,1010.52
2024-02-13T03:25:20.258Z,1010.51
2024-02-13T03:26:20.258Z,1010.54
2024-02-13T03:27:20.179Z,1010.54
2024-02-13T03:28:20.112Z,1010.59
2024-02-13T03:29:20.394Z,1010.57
2024-02-13T03:30:20.111Z,1010.58
2024-02-13T03:31:20.213Z,1010.57
2024-02-13T03:32:20.100Z,1010.56
2024-02-13T03:33:20.146Z,1010.54
2024-02-13T03:34:20.161Z,1010.56
2024-02-13T03:35:20.160Z,1010.56
2024-02-13T03:36:20.238Z,1010.55
2024-02-13T03:37:20.028Z,1010.58
2024-02-13T03:38:20.012Z,1010.51
2024-02-13T03:39:20.046Z,1010.56
2024-02-13T03:40:19.996Z,1010.52
2024-02-13T03:41:20.499Z,1010.52
2024-02-13T03:42:19.929Z,1010.51
2024-02-13T03:43:19.954Z,1010.60
2024-02-13T03:44:19.993Z,1010.58
2024-02-13T03:45:19.912Z,1010.54
2024-02-13T03:46:19.862Z,1010.55
2024-02-13T03:47:19.912Z,1010.57
2024-02-13T03:48:20.079Z,1010.59
2024-02-13T03:49:19.876Z,1010.56
2024-02-13T03:50:19.937Z,1010.63
2024-02-13T03:51:19.863Z,1010.62
2024-02-13T03:52:20.086Z,1010.59
2024-02-13T03:53:19.797Z,1010.60
2024-02-13T03:54:20.000Z,1010.57
2024-02-13T03:55:19.777Z,1010.61
2024-02-13T03:56:19.765Z,1010.63
2024-02-13T03:57:19.718Z,1010.57
2024-02-13T03:58:19.753Z,1010.61
2024-02-13T03:59:20.009Z,1010.60
2024-02-13T04:00:19.664Z,1010.59
2024-02-13T04:01:19.669Z,1010.59
2024-02-13T04:02:19.659Z,1010.60
2024-02-13T04:03:20.092Z,1010.58
2024-02-13T04:04:19.619Z,1010.57
2024-02-13T04:05:19.927Z,1010.53
2024-02-13T04:06:19.724Z,1010.58
2024-02-13T04:07:19.778Z,1010.54
2024-02-13T04:08:19.669Z,1010.54
2024-02-13T04:09:19.630Z,1010.59
2024-02-13T04:10:19.539Z,1010.53
2024-02-13T04:11:19.586Z,1010.57
2024-02-13T04:12:19.523Z,1010.57
2024-02-13T04:13:19.554Z,1010.57
2024-02-13T04:14:19.667Z,1010.58
2024-02-13T04:15:19.533Z,1010.61
2024-02-13T04:16:19.702Z,1010.59
2024-02-13T04:17:19.695Z,1010.58
2024-02-13T04:18:19.511Z,1010.60
2024-02-13T04:19:19.502Z,1010.63
2024-02-13T04:20:19.467Z,1010.71
2024-02-13T04:21:19.420Z,1010.67
2024-02-13T04:22:19.393Z,1010.67
2024-02-13T04:23:19.412Z,1010.71
2024-02-13T04:24:19.349Z,1010.71
2024-02-13T04:25:19.374Z,1010.71
2024-02-13T04:26:25.871Z,1010.71
2024-02-13T04:27:20.358Z,1010.69
2024-02-13T04:28:19.288Z,1010.73
2024-02-13T04:29:19.390Z,1010.73
2024-02-13T04:30:19.255Z,1010.71
2024-02-13T04:31:19.247Z,1010.71
2024-02-13T04:32:19.408Z,1010.75
2024-02-13T04:33:19.394Z,1010.72
2024-02-13T04:34:19.386Z,1010.74
2024-02-13T04:35:23.148Z,1010.76
2024-02-13T04:36:19.256Z,1010.79
2024-02-13T04:37:19.167Z,1010.73
2024-02-13T04:38:19.481Z,1010.78
2024-02-13T04:39:19.180Z,1010.82
2024-02-13T04:40:19.153Z,1010.80
2024-02-13T04:41:19.267Z,1010.79
2024-02-13T04:42:19.352Z,1010.76
2024-02-13T04:43:19.361Z,1010.74
2024-02-13T04:44:19.143Z,1010.76
2024-02-13T04:45:19.101Z,1010.76
2024-02-13T04:46:19.065Z,1010.75
2024-02-13T04:47:19.154Z,1010.77
2024-02-13T04:48:19.225Z,1010.80
2024-02-13T04:49:19.274Z,1010.80
2024-02-13T04:50:21.209Z,1010.83
2024-02-13T04:51:19.134Z,1010.81
2024-02-13T04:52:18.966Z,1010.87
2024-02-13T04:53:18.965Z,1010.87
2024-02-13T04:54:19.042Z,1010.90
2024-02-13T04:55:18.942Z,1010.96
2024-02-13T04:56:18.924Z,1010.91
2024-02-13T04:57:18.871Z,1010.94
2024-02-13T04:58:19.214Z,1010.94
2024-02-13T04:59:18.870Z,1010.90
2024-02-13T05:00:19.230Z,1010.88
2024-02-13T05:01:18.890Z,1010.86
2024-02-13T05:02:18.836Z,1010.82
2024-02-13T05:03:19.047Z,1010.89
2024-02-13T05:04:19.707Z,1010.88
2024-02-13T05:05:18.766Z,1010.86
2024-02-13T05:06:18.786Z,1010.89
2024-02-13T05:07:18.796Z,1010.93
2024-02-13T05:08:19.092Z,1010.92
2024-02-13T05:09:18.728Z,1010.96
2024-02-13T05:10:18.685Z,1010.88
2024-02-13T05:11:18.670Z,1010.88
2024-02-13T05:12:19.580Z,1010.91
2024-02-13T05:13:18.651Z,1010.95
2024-02-13T05:14:18.630Z,1010.93
2024-02-13T05:15:18.695Z,1010.92
2024-02-13T05:16:18.978Z,1010.90
2024-02-13T05:17:18.721Z,1010.93
2024-02-13T05:18:19.196Z,1010.93
2024-02-13T05:19:18.862Z,1010.92
2024-02-13T05:20:18.616Z,1010.92
2024-02-13T05:21:18.552Z,1010.95
2024-02-13T05:22:18.613Z,1010.94
2024-02-13T05:23:18.533Z,1010.93
2024-02-13T05:24:18.749Z,1010.93
2024-02-13T05:25:18.602Z,1010.97
2024-02-13T05:26:18.513Z,1010.91
2024-02-13T05:27:18.434Z,1010.95
2024-02-13T05:28:18.472Z,1011.01
2024-02-13T05:29:18.452Z,1010.99
2024-02-13T05:30:18.467Z,1011.00
2024-02-13T05:31:18.520Z,1010.99
2024-02-13T05:32:18.405Z,1011.01
2024-02-13T05:33:18.475Z,1011.04
2024-02-13T05:34:18.443Z,1011.01
2024-02-13T05:35:18.368Z,1011.00
2024-02-13T05:36:18.569Z,1010.99
2024-02-13T05:37:18.348Z,1011.00
2024-02-13T05:38:18.321Z,1010.97
2024-02-13T05:39:18.272Z,1011.01
2024-02-13T05:40:18.547Z,1011.04
2024-02-13T05:41:18.666Z,1011.00
2024-02-13T05:42:18.351Z,1011.01
2024-02-13T05:43:18.444Z,1011.02
2024-02-13T05:44:18.306Z,1011.07
2024-02-13T05:45:18.197Z,1011.13
2024-02-13T05:46:18.183Z,1011.14
2024-02-13T05:47:18.265Z,1011.15
2024-02-13T05:48:18.288Z,1011.19
2024-02-13T05:49:18.222Z,1011.16
2024-02-13T05:50:18.189Z,1011.18
2024-02-13T05:51:18.121Z,1011.27
2024-02-13T05:52:18.121Z,1011.30
2024-02-13T05:53:18.197Z,1011.32
2024-02-13T05:54:18.109Z,1011.37
2024-02-13T05:55:18.165Z,1011.33
2024-02-13T05:56:26.730Z,1011.34
2024-02-13T05:57:19.291Z,1011.32
2024-02-13T05:58:18.248Z,1011.32
2024-02-13T05:59:18.126Z,1011.30
2024-02-13T06:00:18.019Z,1011.26
2024-02-13T06:01:18.040Z,1011.23
2024-02-13T06:02:18.053Z,1011.29
2024-02-13T06:03:18.276Z,1011.30
2024-02-13T06:04:18.284Z,1011.34
2024-02-13T06:05:18.095Z,1011.35
2024-02-13T06:06:18.348Z,1011.41
2024-02-13T06:07:17.913Z,1011.38
2024-02-13T06:08:17.927Z,1011.38
2024-02-13T06:09:17.868Z,1011.38
2024-02-13T06:10:17.964Z,1011.41
2024-02-13T06:11:17.945Z,1011.42
2024-02-13T06:12:17.875Z,1011.41
2024-02-13T06:13:17.905Z,1011.40
2024-02-13T06:14:18.101Z,1011.39
2024-02-13T06:15:18.095Z,1011.36
2024-02-13T06:16:17.811Z,1011.43
2024-02-13T06:17:17.859Z,1011.44
2024-02-13T06:18:18.094Z,1011.45
2024-02-13T06:19:17.837Z,1011.52
2024-02-13T06:20:17.767Z,1011.52
2024-02-13T06:21:17.935Z,1011.56
2024-02-13T06:22:17.716Z,1011.59
2024-02-13T06:23:18.167Z,1011.59
2024-02-13T06:24:17.677Z,1011.64
2024-02-13T06:25:17.687Z,1011.68
2024-02-13T06:26:17.734Z,1011.67
2024-02-13T06:27:17.857Z,1011.74
2024-02-13T06:28:17.687Z,1011.75
2024-02-13T06:29:17.624Z,1011.79
2024-02-13T06:30:17.835Z,1011.79
2024-02-13T06:31:17.567Z,1011.81
2024-02-13T06:32:17.725Z,1011.86
2024-02-13T06:33:17.770Z,1011.80
2024-02-13T06:34:17.664Z,1011.77
2024-02-13T06:35:17.530Z,1011.76
2024-02-13T06:36:17.528Z,1011.73
2024-02-13T06:37:17.482Z,1011.80
2024-02-13T06:38:17.498Z,1011.83
2024-02-13T06:39:17.578Z,1011.89
2024-02-13T06:40:17.435Z,1011.88
2024-02-13T06:41:17.516Z,1011.91
2024-02-13T06:42:17.442Z,1011.90
2024-02-13T06:43:17.429Z,1011.97
2024-02-13T06:44:17.447Z,1011.95
2024-02-13T06:45:17.360Z,1011.97
2024-02-13T06:46:17.392Z,1011.94
2024-02-13T06:47:17.620Z,1011.92
2024-02-13T06:48:17.622Z,1011.94
2024-02-13T06:49:17.528Z,1011.96
2024-02-13T06:50:17.379Z,1011.91
2024-02-13T06:51:17.310Z,1011.96
2024-02-13T06:52:17.280Z,1012.00
2024-02-13T06:53:17.602Z,1012.00
2024-02-13T06:54:17.257Z,1012.02
2024-02-13T06:55:17.265Z,1011.98
2024-02-13T06:56:17.252Z,1011.99
2024-02-13T06:57:17.192Z,1011.98
2024-02-13T06:58:17.230Z,1011.96
2024-02-13T06:59:17.196Z,1011.99
2024-02-13T07:00:17.216Z,1011.95
2024-02-13T07:01:17.941Z,1012.00
2024-02-13T07:02:17.215Z,1012.00
2024-02-13T07:03:17.421Z,1012.06
2024-02-13T07:04:17.258Z,1012.03
2024-02-13T07:05:17.493Z,1012.08
2024-02-13T07:06:19.316Z,1012.09
2024-02-13T07:07:29.015Z,1012.13
2024-02-13T07:08:18.164Z,1012.12
2024-02-13T07:09:17.233Z,1012.16
2024-02-13T07:10:17.844Z,1012.22
2024-02-13T07:11:17.113Z,1012.29
2024-02-13T07:12:17.076Z,1012.30
2024-02-13T07:13:16.970Z,1012.31
2024-02-13T07:14:17.061Z,1012.31
2024-02-13T07:15:17.094Z,1012.27
2024-02-13T07:16:16.974Z,1012.24
2024-02-13T07:17:16.946Z,1012.18
2024-02-13T07:18:17.149Z,1012.20
2024-02-13T07:19:17.103Z,1012.21
2024-02-13T07:20:17.296Z,1012.17
2024-02-13T07:21:17.053Z,1012.21
2024-02-13T07:22:16.869Z,1012.22
2024-02-13T07:23:16.859Z,1012.28
2024-02-13T07:24:16.877Z,1012.32
2024-02-13T07:25:16.891Z,1012.26
2024-02-13T07:26:16.837Z,1012.27
2024-02-13T07:27:16.817Z,1012.27
2024-02-13T07:28:16.798Z,1012.27
2024-02-13T07:29:16.817Z,1012.22
2024-02-13T07:30:16.913Z,1012.20
2024-02-13T07:31:16.805Z,1012.20
2024-02-13T07:32:16.767Z,1012.18
2024-02-13T07:33:16.809Z,1012.15
2024-02-13T07:34:16.841Z,1012.21
2024-02-13T07:35:16.896Z,1012.19
2024-02-13T07:36:16.697Z,1012.20
2024-02-13T07:37:16.670Z,1012.20
2024-02-13T07:38:16.680Z,1012.20
2024-02-13T07:39:16.632Z,1012.24
2024-02-13T07:40:16.587Z,1012.23
2024-02-13T07:41:16.638Z,1012.25
2024-02-13T07:42:20.804Z,1012.28
2024-02-13T07:43:16.585Z,1012.29
2024-02-13T07:44:17.414Z,1012.30
2024-02-13T07:45:16.584Z,1012.28
2024-02-13T07:46:16.559Z,1012.32
2024-02-13T07:47:16.559Z,1012.33
2024-02-13T07:48:16.587Z,1012.29
2024-02-13T07:49:16.524Z,1012.30
2024-02-13T07:50:16.582Z,1012.32
2024-02-13T07:51:16.464Z,1012.37
2024-02-13T07:52:16.439Z,1012.32
2024-02-13T07:53:16.478Z,1012.36
2024-02-13T07:54:16.440Z,1012.40
2024-02-13T07:55:16.368Z,1012.40
2024-02-13T07:56:16.432Z,1012.41
2024-02-13T07:57:16.361Z,1012.45
2024-02-13T07:58:16.374Z,1012.47
2024-02-13T07:59:16.391Z,1012.43
2024-02-13T08:00:16.358Z,1012.49
2024-02-13T08:01:16.423Z,1012.53
2024-02-13T08:02:16.324Z,1012.52
2024-02-13T08:03:16.449Z,1012.55
2024-02-13T08:04:16.302Z,1012.49
2024-02-13T08:05:16.346Z,1012.55
2024-02-13T08:06:16.712Z,1012.48
2024-02-13T08:07:17.047Z,1012.50
2024-02-13T08:08:16.317Z,1012.51
2024-02-13T08:09:16.299Z,1012.46
2024-02-13T08:10:16.192Z,1012.47
2024-02-13T08:11:16.189Z,1012.50
2024-02-13T08:12:16.232Z,1012.40
2024-02-13T08:13:16.394Z,1012.49
2024-02-13T08:14:16.182Z,1012.41
2024-02-13T08:15:16.101Z,1012.40
2024-02-13T08:16:16.939Z,1012.38
2024-02-13T08:17:16.156Z,1012.37
2024-02-13T08:18:16.208Z,1012.32
2024-02-13T08:19:16.153Z,1012.34
2024-02-13T08:20:16.190Z,1012.26
2024-02-13T08:21:16.071Z,1012.34
2024-02-13T08:22:16.047Z,1012.25
2024-02-13T08:23:16.041Z,1012.20
2024-02-13T08:24:16.978Z,1012.22
2024-02-13T08:25:16.036Z,1012.17
2024-02-13T08:26:16.585Z,1012.16
2024-02-13T08:27:16.508Z,1012.12
2024-02-13T08:28:16.782Z,1012.12
2024-02-13T08:29:16.272Z,1012.18
2024-02-13T08:30:16.650Z,1012.16
2024-02-13T08:31:15.923Z,1012.18
2024-02-13T08:32:15.905Z,1012.16
2024-02-13T08:33:16.785Z,1012.17
2024-02-13T08:34:16.312Z,1012.15
2024-02-13T08:35:16.105Z,1012.18
2024-02-13T08:36:15.861Z,1012.18
2024-02-13T08:37:16.094Z,1012.11
2024-02-13T08:38:15.817Z,1012.13
2024-02-13T08:39:15.758Z,1012.17
2024-02-13T08:40:15.751Z,1012.14
2024-02-13T08:41:15.768Z,1012.12
2024-02-13T08:42:15.780Z,1012.11
2024-02-13T08:43:15.707Z,1012.13
2024-02-13T08:44:15.723Z,1012.13
2024-02-13T08:45:15.673Z,1012.08
2024-02-13T08:46:15.932Z,1012.10
2024-02-13T08:47:15.675Z,1012.11
2024-02-13T08:48:15.891Z,1012.10
2024-02-13T08:49:16.097Z,1012.06
2024-02-13T08:50:15.840Z,1012.12
2024-02-13T08:51:15.705Z,1012.08
2024-02-13T08:52:15.608Z,1012.09
2024-02-13T08:53:15.636Z,1012.15
2024-02-13T08:54:15.622Z,1012.12
2024-02-13T08:55:15.607Z,1012.10
2024-02-13T08:56:15.549Z,1012.10
2024-02-13T08:57:16.275Z,1012.15
2024-02-13T08:58:15.754Z,1012.15
2024-02-13T08:59:15.637Z,1012.15
2024-02-13T09:00:15.519Z,1012.14
2024-02-13T09:01:15.495Z,1012.13
2024-02-13T09:02:16.398Z,1012.18
2024-02-13T09:03:15.697Z,1012.12
2024-02-13T09:04:15.441Z,1012.14
2024-02-13T09:05:15.544Z,1012.15
2024-02-13T09:06:15.482Z,1012.14
2024-02-13T09:07:15.673Z,1012.12
2024-02-13T09:08:15.717Z,1012.17
2024-02-13T09:09:15.341Z,1012.14
2024-02-13T09:10:15.371Z,1012.13
2024-02-13T09:11:16.037Z,1012.10
2024-02-13T09:12:15.312Z,1012.05
2024-02-13T09:13:15.341Z,1012.09
2024-02-13T09:14:15.390Z,1012.06
2024-02-13T09:15:15.256Z,1012.07
2024-02-13T09:16:15.282Z,1012.07
2024-02-13T09:17:15.332Z,1012.10
2024-02-13T09:18:15.346Z,1012.13
2024-02-13T09:19:15.324Z,1012.11
2024-02-13T09:20:15.825Z,1012.12
2024-02-13T09:21:15.160Z,1012.10
2024-02-13T09:22:15.446Z,1012.19
2024-02-13T09:23:15.397Z,1012.12
2024-02-13T09:24:15.124Z,1012.13
2024-02-13T09:25:15.111Z,1012.13
2024-02-13T09:26:15.133Z,1012.21
2024-02-13T09:27:15.092Z,1012.16
2024-02-13T09:28:15.119Z,1012.15
2024-02-13T09:29:15.112Z,1012.18
2024-02-13T09:30:15.278Z,1012.23
2024-02-13T09:31:15.020Z,1012.27
2024-02-13T09:32:15.020Z,1012.25
2024-02-13T09:33:15.503Z,1012.27
2024-02-13T09:34:15.225Z,1012.31
2024-02-13T09:35:14.993Z,1012.28
2024-02-13T09:36:14.988Z,1012.38
2024-02-13T09:37:15.207Z,1012.33
2024-02-13T09:38:14.959Z,1012.29
2024-02-13T09:39:14.921Z,1012.30
2024-02-13T09:40:15.032Z,1012.27
2024-02-13T09:41:14.989Z,1012.30
2024-02-13T09:42:14.898Z,1012.33
2024-02-13T09:43:14.857Z,1012.32
2024-02-13T09:44:15.009Z,1012.32
2024-02-13T09:45:14.878Z,1012.28
2024-02-13T09:46:14.860Z,1012.30
2024-02-13T09:47:14.832Z,1012.30
2024-02-13T09:48:15.171Z,1012.30
2024-02-13T09:49:14.932Z,1012.32
2024-02-13T09:50:14.820Z,1012.32
2024-02-13T09:51:14.778Z,1012.38
2024-02-13T09:52:14.984Z,1012.38
2024-02-13T09:53:15.078Z,1012.36
2024-02-13T09:54:14.768Z,1012.36
2024-02-13T09:55:14.704Z,1012.41
2024-02-13T09:56:14.737Z,1012.41
2024-02-13T09:57:14.728Z,1012.40
2024-02-13T09:58:14.685Z,1012.33
2024-02-13T09:59:14.706Z,1012.32
2024-02-13T10:00:14.630Z,1012.38
2024-02-13T10:01:14.712Z,1012.37
2024-02-13T10:02:14.618Z,1012.38
2024-02-13T10:03:15.109Z,1012.43
2024-02-13T10:04:14.624Z,1012.39
2024-02-13T10:05:15.000Z,1012.42
2024-02-13T10:06:14.856Z,1012.37
2024-02-13T10:07:14.573Z,1012.42
2024-02-13T10:08:14.582Z,1012.46
2024-02-13T10:09:14.526Z,1012.40
2024-02-13T10:10:14.549Z,1012.44
2024-02-13T10:11:14.823Z,1012.44
2024-02-13T10:12:14.464Z,1012.45
2024-02-13T10:13:14.722Z,1012.46
2024-02-13T10:14:14.476Z,1012.44
2024-02-13T10:15:14.696Z,1012.40
2024-02-13T10:16:14.430Z,1012.46
2024-02-13T10:17:14.421Z,1012.47
2024-02-13T10:18:14.479Z,1012.53
2024-02-13T10:19:14.535Z,1012.52
2024-02-13T10:20:14.623Z,1012.54
2024-02-13T10:21:14.364Z,1012.53
2024-02-13T10:22:14.349Z,1012.52
2024-02-13T10:23:14.404Z,1012.56
2024-02-13T10:24:14.668Z,1012.54
2024-02-13T10:25:14.284Z,1012.52
2024-02-13T10:26:14.337Z,1012.50
2024-02-13T10:27:14.313Z,1012.48
2024-02-13T10:28:14.492Z,1012.45
2024-02-13T10:29:14.328Z,1012.51
2024-02-13T10:30:14.192Z,1012.48
2024-02-13T10:31:14.202Z,1012.54
2024-02-13T10:32:14.478Z,1012.50
2024-02-13T10:33:14.358Z,1012.50
2024-02-13T10:34:14.148Z,1012.62
2024-02-13T10:35:14.202Z,1012.53
2024-02-13T10:36:14.155Z,1012.55
2024-02-13T10:37:16.381Z,1012.54
2024-02-13T10:38:14.120Z,1012.55
2024-02-13T10:39:14.206Z,1012.46
2024-02-13T10:40:14.297Z,1012.47
2024-02-13T10:41:14.058Z,1012.54
2024-02-13T10:42:14.066Z,1012.51
2024-02-13T10:43:14.049Z,1012.48
2024-02-13T10:44:14.081Z,1012.53
2024-02-13T10:45:14.017Z,1012.54
2024-02-13T10:46:13.977Z,1012.54
2024-02-13T10:47:14.136Z,1012.58
2024-02-13T10:48:14.077Z,1012.53
2024-02-13T10:49:13.969Z,1012.49
2024-02-13T10:50:14.044Z,1012.53
2024-02-13T10:51:14.025Z,1012.53
2024-02-13T10:52:13.895Z,1012.58
2024-02-13T10:53:13.964Z,1012.51
2024-02-13T10:54:14.164Z,1012.58
2024-02-13T10:55:14.096Z,1012.57
2024-02-13T10:56:14.167Z,1012.56
2024-02-13T10:57:14.180Z,1012.53
2024-02-13T10:58:17.581Z,1012.54
2024-02-13T10:59:14.883Z,1012.51
2024-02-13T11:00:13.844Z,1012.54
2024-02-13T11:01:14.218Z,1012.50
2024-02-13T11:02:13.834Z,1012.54
2024-02-13T11:03:14.053Z,1012.54
2024-02-13T11:04:14.061Z,1012.46
2024-02-13T11:05:13.747Z,1012.42
2024-02-13T11:06:13.865Z,1012.45
2024-02-13T11:07:13.779Z,1012.49
2024-02-13T11:08:13.752Z,1012.47
2024-02-13T11:09:14.179Z,1012.51
2024-02-13T11:10:13.781Z,1012.50
2024-02-13T11:11:13.687Z,1012.51
2024-02-13T11:12:13.727Z,1012.54
2024-02-13T11:13:13.575Z,1012.51
2024-02-13T11:14:13.916Z,1012.58
2024-02-13T11:15:13.622Z,1012.59
2024-02-13T11:16:13.572Z,1012.59
2024-02-13T11:17:13.558Z,1012.55
2024-02-13T11:18:13.832Z,1012.60
2024-02-13T11:19:13.560Z,1012.52
2024-02-13T11:20:13.537Z,1012.53
2024-02-13T11:21:13.604Z,1012.50
2024-02-13T11:22:13.467Z,1012.49
2024-02-13T11:23:13.737Z,1012.55
2024-02-13T11:24:13.548Z,1012.55
2024-02-13T11:25:13.775Z,1012.53
2024-02-13T11:26:13.436Z,1012.52
2024-02-13T11:27:23.738Z,1012.57
2024-02-13T11:28:14.424Z,1012.57
2024-02-13T11:29:13.412Z,1012.55
2024-02-13T11:30:13.713Z,1012.53
2024-02-13T11:31:13.354Z,1012.61
2024-02-13T11:32:13.318Z,1012.59
2024-02-13T11:33:13.728Z,1012.57
2024-02-13T11:34:13.668Z,1012.59
2024-02-13T11:35:14.248Z,1012.64
2024-02-13T11:36:13.300Z,1012.55
2024-02-13T11:37:14.207Z,1012.56
2024-02-13T11:38:14.218Z,1012.54
2024-02-13T11:39:13.286Z,1012.55
2024-02-13T11:40:14.876Z,1012.58
2024-02-13T11:41:13.285Z,1012.58
2024-02-13T11:42:13.208Z,1012.56
2024-02-13T11:43:13.394Z,1012.57
2024-02-13T11:44:13.149Z,1012.56
2024-02-13T11:45:13.437Z,1012.57
2024-02-13T11:46:13.143Z,1012.58
2024-02-13T11:47:13.128Z,1012.53
2024-02-13T11:48:13.176Z,1012.54
2024-02-13T11:49:14.347Z,1012.51
2024-02-13T11:50:13.273Z,1012.60
2024-02-13T11:51:13.083Z,1012.49
2024-02-13T11:52:13.072Z,1012.51
2024-02-13T11:53:13.067Z,1012.55
2024-02-13T11:54:13.078Z,1012.56
2024-02-13T11:55:13.013Z,1012.49
2024-02-13T11:56:13.029Z,1012.53
2024-02-13T11:57:13.410Z,1012.54
2024-02-13T11:58:12.948Z,1012.57
2024-02-13T11:59:12.954Z,1012.48
2024-02-13T12:00:12.952Z,1012.52
2024-02-13T12:01:13.167Z,1012.51
2024-02-13T12:02:13.207Z,1012.54
2024-02-13T12:03:13.824Z,1012.53
2024-02-13T12:04:13.503Z,1012.50
2024-02-13T12:05:12.874Z,1012.47